Terminal Aerodrome Forecast
Issued by NWS Charleston, WV

Current Version | Previous Version | Text Only | Print | Product List | Glossary Off
Versions: 1 2 3 4 5 6 7 8 9 10 11 12 13 14 15 16 17 18 19 20 21 22 23 24 25 26 27 28

000
FTUS41 KRLX 221100
TAFHTS
TAF
KHTS 221126Z 2212/2312 VRB03KT 6SM BR SCT025 BKN080
     FM221300 VRB03KT P6SM BKN025 BKN080
      TEMPO 2214/2216 2SM +TSRA BR BKN020CB
     FM221700 23005KT 5SM SHRA BR VCTS BKN030CB
     FM230100 VRB03KT 6SM BR BKN030
     FM230800 VRB03KT 4SM BR BKN020=

USA.gov is the U.S. government's official web portal to all federal, state and local government web resources and services.